createdAt,value
2023-05-10T00:00:35.737Z,85.38
2023-05-10T00:03:02.171Z,84.73
2023-05-10T00:05:28.546Z,85.33
2023-05-10T00:07:54.927Z,84.12
2023-05-10T00:10:21.290Z,84.77
2023-05-10T00:12:47.716Z,84.41
2023-05-10T00:15:14.154Z,83.41
2023-05-10T00:17:40.541Z,84.17
2023-05-10T00:20:06.931Z,86.69
2023-05-10T00:22:33.355Z,86.07
2023-05-10T00:27:26.213Z,85.50
2023-05-10T00:29:52.604Z,85.01
2023-05-10T00:32:19.213Z,84.14
2023-05-10T00:34:45.850Z,85.11
2023-05-10T00:37:12.293Z,86.32
2023-05-10T00:39:38.691Z,85.80
2023-05-10T00:42:05.548Z,85.50
2023-05-10T00:44:32.415Z,86.67
2023-05-10T00:46:58.910Z,84.75
2023-05-10T00:49:25.374Z,84.44
2023-05-10T00:51:51.738Z,85.59
2023-05-10T00:54:18.213Z,85.43
2023-05-10T00:56:49.632Z,85.41
2023-05-10T00:59:17.289Z,85.60
2023-05-10T01:01:44.027Z,87.10
2023-05-10T01:04:10.976Z,84.93
2023-05-10T01:06:37.367Z,86.79
2023-05-10T01:09:03.810Z,88.51
2023-05-10T01:11:30.310Z,87.61
2023-05-10T01:13:56.924Z,87.13
2023-05-10T01:16:23.381Z,88.72
2023-05-10T01:18:49.759Z,87.95
2023-05-10T01:21:17.089Z,88.13
2023-05-10T01:23:43.497Z,87.86
2023-05-10T01:26:09.827Z,86.20
2023-05-10T01:28:36.462Z,85.87
2023-05-10T01:31:02.852Z,85.55
2023-05-10T01:33:29.808Z,86.99
2023-05-10T01:35:56.144Z,86.54
2023-05-10T01:38:22.520Z,85.45
2023-05-10T01:40:48.880Z,84.26
2023-05-10T01:43:15.248Z,84.35
2023-05-10T01:45:41.667Z,85.56
2023-05-10T01:48:08.472Z,83.87
2023-05-10T01:50:34.937Z,84.72
2023-05-10T01:53:01.299Z,84.31
2023-05-10T01:55:27.879Z,84.27
2023-05-10T01:57:55.432Z,83.64
2023-05-10T02:00:22.528Z,84.02
2023-05-10T02:02:51.791Z,85.38
2023-05-10T02:05:18.372Z,83.29
2023-05-10T02:07:44.802Z,82.99
2023-05-10T02:10:11.517Z,82.21
2023-05-10T02:12:37.943Z,81.11
2023-05-10T02:15:04.321Z,80.20
2023-05-10T02:17:30.837Z,80.38
2023-05-10T02:19:57.236Z,80.58
2023-05-10T02:22:23.574Z,81.62
2023-05-10T02:24:49.948Z,82.18
2023-05-10T02:27:16.335Z,83.05
2023-05-10T02:29:42.738Z,81.21
2023-05-10T02:32:09.192Z,81.71
2023-05-10T02:34:35.673Z,83.31
2023-05-10T02:37:02.074Z,82.26
2023-05-10T02:39:29.475Z,81.66
2023-05-10T02:41:57.045Z,81.37
2023-05-10T02:44:23.398Z,83.82
2023-05-10T02:46:49.781Z,85.66
2023-05-10T02:49:16.234Z,83.38
2023-05-10T02:51:42.693Z,84.75
2023-05-10T02:54:09.034Z,85.07
2023-05-10T02:56:35.486Z,84.65
2023-05-10T02:59:01.885Z,83.56
2023-05-10T03:01:28.310Z,82.62
2023-05-10T03:03:54.691Z,82.02
2023-05-10T03:06:21.141Z,81.77
2023-05-10T03:08:47.518Z,81.77
2023-05-10T03:11:13.958Z,79.18
2023-05-10T03:13:41.210Z,80.34
2023-05-10T03:16:08.810Z,80.32
2023-05-10T03:18:35.927Z,78.93
2023-05-10T03:21:03.487Z,78.33
2023-05-10T03:23:29.883Z,78.83
2023-05-10T03:25:56.549Z,81.04
2023-05-10T03:28:23.294Z,80.99
2023-05-10T03:30:50.011Z,82.31
2023-05-10T03:33:16.521Z,79.50
2023-05-10T03:35:46.724Z,81.52
2023-05-10T03:38:13.935Z,83.71
2023-05-10T03:40:40.402Z,84.46
2023-05-10T03:43:07.712Z,83.30
2023-05-10T03:45:34.113Z,81.41
2023-05-10T03:48:00.540Z,83.82
2023-05-10T03:50:27.298Z,82.79
2023-05-10T03:52:54.846Z,80.52
2023-05-10T03:55:21.493Z,82.45
2023-05-10T03:57:50.428Z,82.48
2023-05-10T04:00:17.667Z,83.23
2023-05-10T04:02:47.315Z,83.10
2023-05-10T04:05:18.713Z,83.32
2023-05-10T04:07:45.357Z,84.55
2023-05-10T04:10:12.055Z,83.87
2023-05-10T04:12:38.464Z,82.94
2023-05-10T04:15:04.839Z,81.65
2023-05-10T04:17:32.241Z,83.03
2023-05-10T04:19:58.692Z,83.82
2023-05-10T04:22:25.088Z,83.73
2023-05-10T04:24:51.509Z,83.20
2023-05-10T04:27:17.898Z,82.43
2023-05-10T04:29:44.297Z,83.91
2023-05-10T04:32:11.102Z,83.07
2023-05-10T04:34:37.479Z,83.93
2023-05-10T04:37:03.854Z,85.07
2023-05-10T04:39:30.264Z,87.15
2023-05-10T04:41:56.729Z,88.03
2023-05-10T04:44:23.123Z,86.83
2023-05-10T04:46:49.505Z,86.08
2023-05-10T04:49:15.963Z,86.22
2023-05-10T04:51:42.373Z,85.25
2023-05-10T04:54:09.169Z,85.14
2023-05-10T04:56:35.559Z,84.96
2023-05-10T04:59:01.950Z,84.70
2023-05-10T05:01:28.344Z,83.59
2023-05-10T05:03:54.849Z,82.33
2023-05-10T05:06:25.726Z,82.55
2023-05-10T05:08:52.069Z,83.06
2023-05-10T05:11:18.607Z,82.97
2023-05-10T05:13:44.977Z,80.98
2023-05-10T05:16:12.479Z,82.19
2023-05-10T05:18:39.039Z,83.45
2023-05-10T05:21:05.434Z,84.40
2023-05-10T05:23:31.791Z,83.41
2023-05-10T05:25:58.254Z,85.49
2023-05-10T05:28:24.592Z,85.42
2023-05-10T05:30:50.974Z,86.27
2023-05-10T05:33:17.609Z,85.93
2023-05-10T05:35:48.491Z,85.46
2023-05-10T05:38:15.351Z,85.00
2023-05-10T05:40:41.809Z,87.50
2023-05-10T05:43:08.380Z,86.28
2023-05-10T05:45:34.757Z,84.46
2023-05-10T05:48:01.181Z,85.20
2023-05-10T05:50:27.577Z,83.41
2023-05-10T05:52:54.011Z,84.16
2023-05-10T05:55:20.395Z,84.05
2023-05-10T05:57:46.776Z,82.65
2023-05-10T06:00:13.131Z,81.70
2023-05-10T06:02:39.631Z,81.70
2023-05-10T06:05:06.123Z,80.64
2023-05-10T06:07:32.762Z,80.75
2023-05-10T06:09:59.121Z,80.10
2023-05-10T06:12:25.528Z,81.24
2023-05-10T06:14:52.025Z,81.16
2023-05-10T06:17:19.082Z,81.74
2023-05-10T06:19:45.444Z,82.32
2023-05-10T06:22:11.801Z,82.04
2023-05-10T06:24:38.231Z,82.20
2023-05-10T06:27:05.080Z,81.36
2023-05-10T06:29:31.491Z,82.27
2023-05-10T06:31:58.001Z,80.43
2023-05-10T06:34:24.445Z,82.85
2023-05-10T06:36:50.887Z,80.62
2023-05-10T06:39:17.446Z,81.19
2023-05-10T06:41:43.898Z,80.91
2023-05-10T06:44:10.247Z,80.57
2023-05-10T06:46:36.769Z,80.57
2023-05-10T06:49:03.311Z,79.23
2023-05-10T06:51:29.717Z,81.93
2023-05-10T06:53:56.118Z,81.25
2023-05-10T06:56:22.700Z,81.64
2023-05-10T06:58:49.407Z,80.58
2023-05-10T07:01:16.105Z,80.20
2023-05-10T07:03:42.642Z,82.36
2023-05-10T07:06:15.626Z,81.61
2023-05-10T07:08:48.454Z,83.51
2023-05-10T07:11:14.790Z,81.91
2023-05-10T07:13:44.928Z,84.23
2023-05-10T07:16:11.530Z,82.90
2023-05-10T07:18:37.932Z,83.99
2023-05-10T07:21:04.377Z,86.13
2023-05-10T07:23:31.220Z,87.44
2023-05-10T07:25:58.410Z,87.30
2023-05-10T07:28:27.669Z,84.99
2023-05-10T07:30:54.063Z,86.87
2023-05-10T07:33:20.543Z,86.23
2023-05-10T07:35:47.100Z,87.03
2023-05-10T07:38:13.513Z,85.36
2023-05-10T07:40:39.859Z,84.64
2023-05-10T07:43:06.317Z,85.30
2023-05-10T07:45:32.772Z,85.18
2023-05-10T07:47:59.357Z,82.50
2023-05-10T07:50:25.774Z,84.34
2023-05-10T07:52:52.167Z,83.71
2023-05-10T07:55:18.637Z,83.22
2023-05-10T07:57:45.030Z,80.22
2023-05-10T08:00:11.425Z,81.02
2023-05-10T08:02:40.943Z,80.82
2023-05-10T08:05:07.441Z,80.94
2023-05-10T08:07:34.554Z,81.92
2023-05-10T08:10:01.018Z,80.10
2023-05-10T08:12:27.423Z,80.47
2023-05-10T08:14:58.924Z,78.46
2023-05-10T08:17:27.134Z,78.45
2023-05-10T08:19:53.591Z,77.99
2023-05-10T08:22:19.974Z,79.07
2023-05-10T08:24:46.552Z,77.42
2023-05-10T08:27:12.931Z,78.49
2023-05-10T08:29:49.709Z,77.37
2023-05-10T08:32:17.098Z,75.85
2023-05-10T08:34:43.527Z,76.40
2023-05-10T08:37:11.439Z,74.56
2023-05-10T08:39:37.743Z,77.02
2023-05-10T08:42:04.188Z,76.31
2023-05-10T08:44:31.272Z,77.02
2023-05-10T08:46:57.660Z,76.97
2023-05-10T08:49:24.097Z,78.21
2023-05-10T08:51:50.540Z,76.71
2023-05-10T08:54:16.928Z,74.68
2023-05-10T08:56:43.264Z,74.20
2023-05-10T08:59:09.788Z,75.51
2023-05-10T09:01:36.114Z,75.60
2023-05-10T09:04:02.616Z,75.03
2023-05-10T09:06:30.002Z,73.54
2023-05-10T09:08:57.028Z,74.29
2023-05-10T09:11:23.432Z,75.52
2023-05-10T09:13:49.803Z,75.78
2023-05-10T09:16:22.010Z,76.00
2023-05-10T09:18:48.907Z,74.38
2023-05-10T09:21:15.394Z,77.10
2023-05-10T09:23:41.809Z,75.06
2023-05-10T09:26:08.214Z,73.81
2023-05-10T09:28:34.848Z,74.33
2023-05-10T09:31:01.261Z,75.07
2023-05-10T09:33:27.603Z,75.84
2023-05-10T09:35:53.966Z,74.91
2023-05-10T09:38:20.492Z,73.35
2023-05-10T09:40:46.828Z,72.16
2023-05-10T09:43:13.432Z,72.52
2023-05-10T09:45:39.826Z,71.85
2023-05-10T09:48:06.392Z,71.46
2023-05-10T09:50:32.921Z,73.25
2023-05-10T09:52:59.540Z,72.83
2023-05-10T09:55:25.879Z,71.77
2023-05-10T09:57:52.233Z,71.99
2023-05-10T10:00:18.918Z,73.23
2023-05-10T10:02:45.306Z,72.44
2023-05-10T10:05:12.005Z,71.95
2023-05-10T10:07:38.610Z,72.89
2023-05-10T10:10:05.816Z,73.17
2023-05-10T10:12:32.575Z,72.80
2023-05-10T10:14:58.978Z,73.58
2023-05-10T10:17:25.447Z,74.59
2023-05-10T10:19:52.240Z,73.95
2023-05-10T10:22:18.602Z,73.55
2023-05-10T10:24:45.011Z,73.66
2023-05-10T10:27:11.424Z,72.27
2023-05-10T10:29:37.818Z,72.74
2023-05-10T10:32:04.211Z,73.67
2023-05-10T10:34:30.589Z,71.79
2023-05-10T10:36:57.498Z,72.44
2023-05-10T10:39:24.005Z,70.45
2023-05-10T10:41:50.509Z,69.93
2023-05-10T10:44:16.888Z,71.57
2023-05-10T10:46:43.337Z,70.58
2023-05-10T10:49:09.781Z,71.27
2023-05-10T10:51:36.132Z,73.67
2023-05-10T10:54:02.501Z,71.93
2023-05-10T10:56:28.847Z,70.26
2023-05-10T10:58:57.013Z,72.18
2023-05-10T11:01:23.420Z,72.06
2023-05-10T11:03:49.833Z,73.08
2023-05-10T11:06:16.247Z,71.90
2023-05-10T11:08:43.864Z,71.00
2023-05-10T11:11:10.412Z,70.59
2023-05-10T11:13:36.937Z,69.98
2023-05-10T11:16:03.307Z,71.45
2023-05-10T11:18:29.831Z,69.51
2023-05-10T11:20:56.231Z,68.29
2023-05-10T11:23:22.865Z,68.24
2023-05-10T11:25:49.289Z,68.27
2023-05-10T11:28:15.734Z,67.40
2023-05-10T11:30:42.244Z,69.68
2023-05-10T11:33:08.746Z,69.30
2023-05-10T11:35:35.453Z,70.11
2023-05-10T11:38:01.852Z,70.70
2023-05-10T11:40:28.228Z,69.50
2023-05-10T11:42:54.699Z,70.85
2023-05-10T11:45:22.688Z,70.59
2023-05-10T11:47:49.061Z,70.80
2023-05-10T11:50:15.792Z,72.07
2023-05-10T11:52:42.546Z,73.26
2023-05-10T11:55:08.922Z,70.94
2023-05-10T11:57:35.583Z,70.80
2023-05-10T12:00:04.570Z,69.46
2023-05-10T12:02:34.607Z,71.25
2023-05-10T12:05:01.434Z,70.73
2023-05-10T12:07:27.924Z,70.61
2023-05-10T12:09:54.330Z,69.76
2023-05-10T12:12:20.791Z,69.09
2023-05-10T12:14:47.144Z,67.67
2023-05-10T12:17:14.308Z,68.50
2023-05-10T12:19:40.711Z,67.08
2023-05-10T12:22:07.123Z,66.32
2023-05-10T12:24:33.481Z,65.45
2023-05-10T12:27:00.062Z,66.70
2023-05-10T12:29:26.493Z,66.45
2023-05-10T12:31:52.911Z,65.87
2023-05-10T12:34:19.315Z,65.27
2023-05-10T12:36:45.799Z,64.36
2023-05-10T12:39:12.665Z,62.99
2023-05-10T12:41:40.906Z,63.50
2023-05-10T12:44:09.184Z,60.79
2023-05-10T12:46:35.894Z,60.65
2023-05-10T12:49:09.113Z,60.43
2023-05-10T12:51:36.326Z,59.98
2023-05-10T12:54:02.680Z,60.55
2023-05-10T12:56:29.097Z,58.70
2023-05-10T12:58:55.589Z,59.13
2023-05-10T13:01:22.082Z,61.75
2023-05-10T13:03:48.574Z,59.59
2023-05-10T13:06:14.990Z,60.37
2023-05-10T13:08:41.423Z,60.36
2023-05-10T13:11:07.826Z,59.58
2023-05-10T13:13:34.174Z,61.16
2023-05-10T13:16:00.730Z,60.21
2023-05-10T13:18:27.666Z,59.65
2023-05-10T13:20:54.316Z,60.49
2023-05-10T13:23:21.027Z,59.55
2023-05-10T13:25:47.449Z,60.32
2023-05-10T13:28:14.080Z,60.31
2023-05-10T13:30:40.490Z,59.29
2023-05-10T13:33:06.917Z,58.78
2023-05-10T13:35:33.473Z,58.98
2023-05-10T13:37:59.867Z,58.55
2023-05-10T13:40:26.251Z,58.07
2023-05-10T13:42:53.666Z,59.09
2023-05-10T13:45:20.182Z,60.71
2023-05-10T13:47:46.961Z,59.03
2023-05-10T13:50:13.336Z,58.67
2023-05-10T13:52:39.700Z,60.89
2023-05-10T13:55:06.411Z,58.49
2023-05-10T13:57:32.778Z,57.51
2023-05-10T13:59:59.172Z,56.77
2023-05-10T14:02:26.159Z,56.33
2023-05-10T14:04:52.671Z,56.89
2023-05-10T14:07:19.410Z,55.61
2023-05-10T14:09:45.922Z,55.86
2023-05-10T14:12:12.451Z,58.60
2023-05-10T14:14:38.915Z,57.58
2023-05-10T14:17:05.540Z,58.43
2023-05-10T14:19:35.389Z,58.27
2023-05-10T14:22:01.783Z,57.92
2023-05-10T14:24:28.214Z,57.63
2023-05-10T14:26:54.968Z,57.90
2023-05-10T14:29:21.338Z,60.77
2023-05-10T14:31:47.826Z,61.01
2023-05-10T14:34:14.292Z,59.62
2023-05-10T14:36:42.154Z,59.10
2023-05-10T14:39:08.962Z,58.53
2023-05-10T14:41:35.368Z,57.65
2023-05-10T14:44:02.527Z,57.65
2023-05-10T14:46:29.060Z,57.32
2023-05-10T14:48:55.592Z,57.63
2023-05-10T14:51:22.876Z,56.20
2023-05-10T14:53:50.452Z,57.14
2023-05-10T14:56:16.867Z,58.58
2023-05-10T14:58:43.241Z,57.61
2023-05-10T15:01:09.612Z,57.59
2023-05-10T15:03:36.746Z,59.83
2023-05-10T15:06:03.655Z,58.60
2023-05-10T15:08:30.010Z,60.25
2023-05-10T15:10:56.972Z,62.96
2023-05-10T15:13:23.354Z,61.40
2023-05-10T15:15:49.991Z,62.68
2023-05-10T15:18:16.652Z,60.70
2023-05-10T15:20:43.107Z,61.96
2023-05-10T15:23:09.559Z,61.24
2023-05-10T15:25:38.139Z,60.76
2023-05-10T15:28:04.698Z,60.83
2023-05-10T15:30:31.195Z,61.17
2023-05-10T15:32:57.684Z,60.06
2023-05-10T15:35:24.124Z,60.91
2023-05-10T15:37:50.686Z,61.88
2023-05-10T15:40:17.116Z,63.17
2023-05-10T15:42:43.485Z,64.78
2023-05-10T15:45:09.860Z,64.52
2023-05-10T15:47:36.301Z,65.26
2023-05-10T15:50:03.047Z,67.68
2023-05-10T15:52:29.672Z,67.11
2023-05-10T15:54:56.549Z,66.55
2023-05-10T15:57:22.938Z,67.87
2023-05-10T15:59:49.342Z,68.53
2023-05-10T16:02:16.066Z,68.32
2023-05-10T16:04:42.533Z,69.28
2023-05-10T16:07:08.917Z,71.82
2023-05-10T16:09:35.519Z,73.14
2023-05-10T16:12:04.497Z,75.29
2023-05-10T16:14:30.984Z,74.65
2023-05-10T16:16:57.536Z,74.82
2023-05-10T16:19:24.070Z,76.34
2023-05-10T16:21:50.623Z,76.43
2023-05-10T16:24:17.119Z,73.20
2023-05-10T16:26:43.643Z,76.17
2023-05-10T16:29:10.225Z,77.71
2023-05-10T16:31:36.850Z,76.89
2023-05-10T16:34:03.345Z,77.88
2023-05-10T16:36:29.842Z,77.74
2023-05-10T16:38:56.550Z,78.09
2023-05-10T16:41:22.979Z,76.89
2023-05-10T16:43:49.640Z,77.53
2023-05-10T16:46:16.163Z,78.17
2023-05-10T16:48:42.625Z,79.89
2023-05-10T16:51:09.173Z,79.00
2023-05-10T16:53:36.196Z,78.60
2023-05-10T16:56:02.854Z,77.46
2023-05-10T16:58:29.606Z,78.93
2023-05-10T17:00:56.069Z,79.63
2023-05-10T17:03:22.818Z,81.33
2023-05-10T17:05:49.310Z,80.31
2023-05-10T17:08:15.861Z,80.49
2023-05-10T17:10:42.252Z,78.67
2023-05-10T17:13:10.468Z,75.77
2023-05-10T17:15:37.683Z,75.82
2023-05-10T17:18:04.749Z,75.74
2023-05-10T17:20:31.383Z,75.91
2023-05-10T17:22:57.805Z,77.23
2023-05-10T17:25:24.189Z,77.05
2023-05-10T17:27:50.571Z,75.16
2023-05-10T17:30:19.288Z,75.54
2023-05-10T17:32:45.721Z,75.08
2023-05-10T17:35:12.205Z,74.86
2023-05-10T17:37:38.604Z,75.74
2023-05-10T17:40:07.306Z,75.19
2023-05-10T17:42:33.738Z,73.50
2023-05-10T17:45:00.157Z,72.62
2023-05-10T17:47:26.674Z,73.72
2023-05-10T17:49:53.033Z,73.79
2023-05-10T17:52:19.395Z,73.98
2023-05-10T17:54:45.828Z,73.43
2023-05-10T17:57:12.275Z,73.81
2023-05-10T17:59:38.657Z,74.24
2023-05-10T18:02:05.098Z,74.97
2023-05-10T18:04:31.536Z,72.52
2023-05-10T18:07:01.444Z,74.05
2023-05-10T18:09:27.973Z,74.46
2023-05-10T18:11:54.343Z,74.51
2023-05-10T18:14:36.012Z,72.61
2023-05-10T18:17:06.897Z,72.97
2023-05-10T18:19:33.486Z,72.25
2023-05-10T18:21:59.887Z,73.00
2023-05-10T18:24:37.550Z,72.79
2023-05-10T18:27:05.897Z,73.27
2023-05-10T18:29:32.280Z,74.84
2023-05-10T18:31:58.685Z,74.78
2023-05-10T18:34:25.062Z,75.12
2023-05-10T18:36:52.427Z,76.42
2023-05-10T18:39:18.972Z,75.97
2023-05-10T18:41:45.819Z,76.71
2023-05-10T18:44:12.324Z,77.24
2023-05-10T18:46:39.006Z,77.58
2023-05-10T18:49:08.340Z,78.41
2023-05-10T18:51:34.732Z,77.62
2023-05-10T18:54:01.368Z,76.87
2023-05-10T18:56:27.905Z,77.00
2023-05-10T18:58:54.453Z,74.76
2023-05-10T19:01:21.494Z,75.86
2023-05-10T19:03:47.989Z,75.24
2023-05-10T19:06:14.425Z,76.40
2023-05-10T19:08:41.033Z,76.59
2023-05-10T19:11:07.502Z,77.90
2023-05-10T19:13:33.892Z,78.89
2023-05-10T19:16:00.338Z,79.88
2023-05-10T19:18:27.212Z,79.36
2023-05-10T19:20:53.865Z,79.87
2023-05-10T19:23:20.278Z,78.96
2023-05-10T19:25:47.327Z,77.44
2023-05-10T19:28:13.695Z,77.85
2023-05-10T19:30:40.222Z,78.67
2023-05-10T19:33:06.801Z,79.02
2023-05-10T19:35:33.291Z,78.62
2023-05-10T19:37:59.702Z,77.92
2023-05-10T19:40:26.106Z,76.63
2023-05-10T19:42:52.801Z,75.69
2023-05-10T19:45:20.181Z,77.06
2023-05-10T19:47:47.005Z,77.73
2023-05-10T19:50:13.804Z,76.92
2023-05-10T19:52:40.298Z,77.42
2023-05-10T19:55:07.101Z,78.45
2023-05-10T19:57:33.478Z,79.11
2023-05-10T19:59:59.908Z,79.06
2023-05-10T20:02:26.289Z,76.67
2023-05-10T20:04:52.709Z,77.17
2023-05-10T20:07:19.121Z,76.14
2023-05-10T20:09:45.725Z,77.66
2023-05-10T20:12:12.603Z,77.18
2023-05-10T20:14:38.937Z,77.00
2023-05-10T20:17:05.570Z,78.10
2023-05-10T20:19:32.232Z,79.18
2023-05-10T20:21:58.903Z,78.60
2023-05-10T20:24:25.380Z,78.01
2023-05-10T20:26:51.722Z,78.63
2023-05-10T20:29:18.108Z,78.03
2023-05-10T20:31:44.528Z,79.94
2023-05-10T20:34:11.204Z,80.02
2023-05-10T20:36:38.203Z,80.28
2023-05-10T20:39:04.572Z,79.60
2023-05-10T20:41:30.997Z,79.71
2023-05-10T20:43:57.397Z,80.21
2023-05-10T20:46:24.164Z,80.86
2023-05-10T20:48:50.537Z,82.08
2023-05-10T20:51:16.981Z,81.35
2023-05-10T20:53:43.403Z,80.91
2023-05-10T20:56:09.983Z,80.42
2023-05-10T20:58:36.468Z,80.52
2023-05-10T21:01:02.847Z,81.88
2023-05-10T21:03:29.376Z,79.46
2023-05-10T21:05:55.828Z,79.95
2023-05-10T21:08:22.317Z,78.08
2023-05-10T21:10:48.740Z,78.52
2023-05-10T21:13:15.092Z,78.50
2023-05-10T21:15:41.528Z,79.07
2023-05-10T21:18:08.330Z,79.64
2023-05-10T21:20:34.765Z,80.23
2023-05-10T21:23:01.190Z,79.55
2023-05-10T21:25:27.807Z,78.73
2023-05-10T21:27:54.731Z,77.88
2023-05-10T21:30:21.153Z,78.22
2023-05-10T21:32:47.622Z,78.38
2023-05-10T21:35:14.110Z,80.19
2023-05-10T21:37:40.944Z,79.87
2023-05-10T21:40:07.347Z,80.30
2023-05-10T21:42:33.826Z,79.03
2023-05-10T21:45:00.199Z,79.70
2023-05-10T21:47:26.552Z,80.36
2023-05-10T21:49:53.534Z,81.07
2023-05-10T21:52:20.236Z,79.44
2023-05-10T21:54:46.914Z,79.17
2023-05-10T21:57:13.306Z,79.25
2023-05-10T21:59:39.923Z,77.69
2023-05-10T22:02:06.948Z,77.72
2023-05-10T22:04:33.424Z,79.35
2023-05-10T22:06:59.860Z,79.23
2023-05-10T22:09:26.298Z,79.33
2023-05-10T22:11:52.645Z,77.11
2023-05-10T22:14:19.082Z,75.79
2023-05-10T22:16:45.481Z,77.46
2023-05-10T22:19:12.182Z,77.08
2023-05-10T22:21:38.815Z,76.82
2023-05-10T22:24:05.272Z,76.92
2023-05-10T22:26:31.761Z,77.77
2023-05-10T22:28:58.228Z,77.72
2023-05-10T22:31:24.706Z,79.20
2023-05-10T22:33:51.127Z,79.27
2023-05-10T22:36:17.669Z,79.23
2023-05-10T22:38:44.084Z,80.88
2023-05-10T22:41:10.453Z,80.40
2023-05-10T22:43:36.827Z,80.96
2023-05-10T22:46:03.296Z,81.26
2023-05-10T22:48:29.695Z,80.39
2023-05-10T22:50:56.254Z,79.67
2023-05-10T22:53:22.653Z,79.58
2023-05-10T22:55:48.946Z,79.91
2023-05-10T22:58:15.391Z,80.08
2023-05-10T23:00:41.742Z,79.33
2023-05-10T23:03:08.195Z,81.11
2023-05-10T23:05:34.510Z,81.14
2023-05-10T23:08:00.924Z,80.77
2023-05-10T23:10:27.347Z,80.24
2023-05-10T23:12:55.519Z,79.76
2023-05-10T23:15:21.917Z,79.58
2023-05-10T23:17:48.350Z,81.05
2023-05-10T23:20:15.127Z,79.25
2023-05-10T23:22:41.608Z,79.62
2023-05-10T23:25:07.930Z,79.94
2023-05-10T23:27:34.325Z,78.59
2023-05-10T23:30:00.758Z,79.06
2023-05-10T23:32:27.233Z,78.45
2023-05-10T23:34:53.797Z,77.60
2023-05-10T23:37:20.171Z,78.92
2023-05-10T23:39:46.561Z,77.82
2023-05-10T23:42:12.937Z,77.00
2023-05-10T23:44:39.342Z,76.28
2023-05-10T23:47:06.046Z,77.20
2023-05-10T23:49:32.416Z,76.88
2023-05-10T23:51:58.810Z,77.95
2023-05-10T23:54:25.204Z,76.98
2023-05-10T23:56:51.729Z,78.33
2023-05-10T23:59:18.061Z,80.26
